METAR Data
IDs: Format: Raw Decoded Include TAF

Data at: 2209 UTC 02 Aug 2021

KJLN 022153Z VRB04KT 5SM HZ FEW044 SCT080 BKN095 28/19 A3007 RMK AO2 SLP173 T02780189